sensor_id;sensor_type;location;lat;lon;timestamp;P1;durP1;ratioP1;P2;durP2;ratioP2
23745;SDS011;12053;48.878;9.632;2023-07-20T00:01:30;2.83;;;1.85;;
23745;SDS011;12053;48.878;9.632;2023-07-20T00:03:57;2.20;;;1.73;;
23745;SDS011;12053;48.878;9.632;2023-07-20T00:06:25;3.13;;;1.90;;
23745;SDS011;12053;48.878;9.632;2023-07-20T00:08:54;3.03;;;1.98;;
23745;SDS011;12053;48.878;9.632;2023-07-20T00:11:25;7.50;;;1.98;;
23745;SDS011;12053;48.878;9.632;2023-07-20T00:13:53;1.83;;;1.52;;
23745;SDS011;12053;48.878;9.632;2023-07-20T00:16:20;4.57;;;2.20;;
23745;SDS011;12053;48.878;9.632;2023-07-20T00:18:48;4.03;;;1.80;;
23745;SDS011;12053;48.878;9.632;2023-07-20T00:21:15;4.25;;;1.80;;
23745;SDS011;12053;48.878;9.632;2023-07-20T00:23:42;4.43;;;1.70;;
23745;SDS011;12053;48.878;9.632;2023-07-20T00:26:09;2.97;;;1.88;;
23745;SDS011;12053;48.878;9.632;2023-07-20T00:28:36;4.70;;;1.92;;
23745;SDS011;12053;48.878;9.632;2023-07-20T00:31:04;3.75;;;2.17;;
23745;SDS011;12053;48.878;9.632;2023-07-20T00:33:31;3.15;;;2.00;;
23745;SDS011;12053;48.878;9.632;2023-07-20T00:35:58;3.15;;;1.95;;
23745;SDS011;12053;48.878;9.632;2023-07-20T00:38:26;9.63;;;2.72;;
23745;SDS011;12053;48.878;9.632;2023-07-20T00:40:53;3.78;;;1.90;;
23745;SDS011;12053;48.878;9.632;2023-07-20T00:43:20;5.13;;;1.90;;
23745;SDS011;12053;48.878;9.632;2023-07-20T00:45:47;2.00;;;1.80;;
23745;SDS011;12053;48.878;9.632;2023-07-20T00:48:14;3.45;;;2.13;;
23745;SDS011;12053;48.878;9.632;2023-07-20T00:50:41;4.47;;;2.20;;
23745;SDS011;12053;48.878;9.632;2023-07-20T00:53:09;2.38;;;2.00;;
23745;SDS011;12053;48.878;9.632;2023-07-20T00:55:36;3.58;;;2.30;;
23745;SDS011;12053;48.878;9.632;2023-07-20T00:58:04;3.05;;;2.05;;
23745;SDS011;12053;48.878;9.632;2023-07-20T01:00:31;4.72;;;1.92;;
23745;SDS011;12053;48.878;9.632;2023-07-20T01:02:58;5.28;;;2.30;;
23745;SDS011;12053;48.878;9.632;2023-07-20T01:05:27;2.78;;;2.17;;
23745;SDS011;12053;48.878;9.632;2023-07-20T01:08:21;4.55;;;2.35;;
23745;SDS011;12053;48.878;9.632;2023-07-20T01:10:51;3.70;;;2.00;;
23745;SDS011;12053;48.878;9.632;2023-07-20T01:13:21;3.10;;;1.90;;
23745;SDS011;12053;48.878;9.632;2023-07-20T01:15:49;2.60;;;2.10;;
23745;SDS011;12053;48.878;9.632;2023-07-20T01:18:17;4.95;;;2.00;;
23745;SDS011;12053;48.878;9.632;2023-07-20T01:20:44;2.30;;;1.73;;
23745;SDS011;12053;48.878;9.632;2023-07-20T01:23:38;4.28;;;2.28;;
23745;SDS011;12053;48.878;9.632;2023-07-20T01:26:18;4.28;;;2.20;;
23745;SDS011;12053;48.878;9.632;2023-07-20T01:31:37;3.08;;;2.08;;
23745;SDS011;12053;48.878;9.632;2023-07-20T01:34:05;4.28;;;1.95;;
23745;SDS011;12053;48.878;9.632;2023-07-20T01:36:34;2.05;;;1.85;;
23745;SDS011;12053;48.878;9.632;2023-07-20T01:39:02;4.57;;;2.08;;
23745;SDS011;12053;48.878;9.632;2023-07-20T01:41:30;5.45;;;2.28;;
23745;SDS011;12053;48.878;9.632;2023-07-20T01:43:58;4.97;;;2.50;;
23745;SDS011;12053;48.878;9.632;2023-07-20T01:46:25;4.85;;;2.10;;
23745;SDS011;12053;48.878;9.632;2023-07-20T01:48:53;6.65;;;2.42;;
23745;SDS011;12053;48.878;9.632;2023-07-20T01:51:21;4.10;;;2.15;;
23745;SDS011;12053;48.878;9.632;2023-07-20T01:53:48;4.45;;;2.13;;
23745;SDS011;12053;48.878;9.632;2023-07-20T01:56:15;5.43;;;2.15;;
23745;SDS011;12053;48.878;9.632;2023-07-20T01:58:43;3.22;;;2.33;;
23745;SDS011;12053;48.878;9.632;2023-07-20T02:01:10;3.28;;;1.80;;
23745;SDS011;12053;48.878;9.632;2023-07-20T02:03:37;5.18;;;2.13;;
23745;SDS011;12053;48.878;9.632;2023-07-20T02:06:04;3.75;;;2.30;;
23745;SDS011;12053;48.878;9.632;2023-07-20T02:08:31;3.08;;;1.98;;
23745;SDS011;12053;48.878;9.632;2023-07-20T02:10:58;3.00;;;2.17;;
23745;SDS011;12053;48.878;9.632;2023-07-20T02:13:26;3.65;;;2.00;;
23745;SDS011;12053;48.878;9.632;2023-07-20T02:15:53;4.70;;;2.30;;
23745;SDS011;12053;48.878;9.632;2023-07-20T02:18:20;4.53;;;1.95;;
23745;SDS011;12053;48.878;9.632;2023-07-20T02:20:47;3.95;;;2.22;;
23745;SDS011;12053;48.878;9.632;2023-07-20T02:23:15;3.85;;;2.10;;
23745;SDS011;12053;48.878;9.632;2023-07-20T02:25:42;3.80;;;2.00;;
23745;SDS011;12053;48.878;9.632;2023-07-20T02:28:12;3.67;;;2.45;;
23745;SDS011;12053;48.878;9.632;2023-07-20T02:30:40;5.10;;;2.55;;
23745;SDS011;12053;48.878;9.632;2023-07-20T02:33:07;2.83;;;2.00;;
23745;SDS011;12053;48.878;9.632;2023-07-20T02:35:34;3.00;;;2.03;;
23745;SDS011;12053;48.878;9.632;2023-07-20T02:38:02;3.15;;;1.95;;
23745;SDS011;12053;48.878;9.632;2023-07-20T02:40:29;4.72;;;2.22;;
23745;SDS011;12053;48.878;9.632;2023-07-20T02:42:56;6.70;;;2.25;;
23745;SDS011;12053;48.878;9.632;2023-07-20T02:45:24;3.63;;;2.30;;
23745;SDS011;12053;48.878;9.632;2023-07-20T02:47:51;2.72;;;1.77;;
23745;SDS011;12053;48.878;9.632;2023-07-20T02:50:18;3.95;;;2.28;;
23745;SDS011;12053;48.878;9.632;2023-07-20T02:52:45;4.22;;;1.90;;
23745;SDS011;12053;48.878;9.632;2023-07-20T02:55:12;6.55;;;2.03;;
23745;SDS011;12053;48.878;9.632;2023-07-20T02:57:40;4.40;;;2.22;;
23745;SDS011;12053;48.878;9.632;2023-07-20T03:00:07;3.65;;;2.10;;
23745;SDS011;12053;48.878;9.632;2023-07-20T03:02:34;4.75;;;1.92;;
23745;SDS011;12053;48.878;9.632;2023-07-20T03:05:02;6.07;;;2.20;;
23745;SDS011;12053;48.878;9.632;2023-07-20T03:07:32;2.88;;;2.00;;
23745;SDS011;12053;48.878;9.632;2023-07-20T03:09:59;3.22;;;2.10;;
23745;SDS011;12053;48.878;9.632;2023-07-20T03:12:26;5.72;;;2.25;;
23745;SDS011;12053;48.878;9.632;2023-07-20T03:14:53;5.20;;;2.17;;
23745;SDS011;12053;48.878;9.632;2023-07-20T03:17:22;2.88;;;2.03;;
23745;SDS011;12053;48.878;9.632;2023-07-20T03:19:49;6.50;;;2.30;;
23745;SDS011;12053;48.878;9.632;2023-07-20T03:22:16;8.38;;;2.58;;
23745;SDS011;12053;48.878;9.632;2023-07-20T03:24:43;5.85;;;2.28;;
23745;SDS011;12053;48.878;9.632;2023-07-20T03:27:11;4.30;;;1.90;;
23745;SDS011;12053;48.878;9.632;2023-07-20T03:29:38;4.35;;;2.00;;
23745;SDS011;12053;48.878;9.632;2023-07-20T03:32:06;3.40;;;2.22;;
23745;SDS011;12053;48.878;9.632;2023-07-20T03:34:33;4.90;;;2.67;;
23745;SDS011;12053;48.878;9.632;2023-07-20T03:37:00;5.75;;;2.83;;
23745;SDS011;12053;48.878;9.632;2023-07-20T03:39:30;10.30;;;3.03;;
23745;SDS011;12053;48.878;9.632;2023-07-20T03:41:58;4.22;;;2.50;;
23745;SDS011;12053;48.878;9.632;2023-07-20T03:44:25;2.88;;;2.17;;
23745;SDS011;12053;48.878;9.632;2023-07-20T03:46:53;3.70;;;2.17;;
23745;SDS011;12053;48.878;9.632;2023-07-20T03:49:20;4.28;;;2.30;;
23745;SDS011;12053;48.878;9.632;2023-07-20T03:51:47;4.18;;;2.10;;
23745;SDS011;12053;48.878;9.632;2023-07-20T03:54:14;3.30;;;2.20;;
23745;SDS011;12053;48.878;9.632;2023-07-20T03:56:41;4.55;;;2.25;;
23745;SDS011;12053;48.878;9.632;2023-07-20T03:59:09;9.10;;;2.38;;
23745;SDS011;12053;48.878;9.632;2023-07-20T04:01:36;4.28;;;2.20;;
23745;SDS011;12053;48.878;9.632;2023-07-20T04:04:06;8.57;;;2.40;;
23745;SDS011;12053;48.878;9.632;2023-07-20T04:06:34;2.80;;;2.15;;
23745;SDS011;12053;48.878;9.632;2023-07-20T04:09:02;5.63;;;2.63;;
23745;SDS011;12053;48.878;9.632;2023-07-20T04:11:29;5.45;;;2.05;;
23745;SDS011;12053;48.878;9.632;2023-07-20T04:13:56;7.40;;;2.45;;
23745;SDS011;12053;48.878;9.632;2023-07-20T04:16:24;5.95;;;2.40;;
23745;SDS011;12053;48.878;9.632;2023-07-20T04:18:54;3.10;;;2.17;;
23745;SDS011;12053;48.878;9.632;2023-07-20T04:21:22;4.82;;;2.28;;
23745;SDS011;12053;48.878;9.632;2023-07-20T04:23:49;4.10;;;2.33;;
23745;SDS011;12053;48.878;9.632;2023-07-20T04:26:16;2.85;;;2.13;;
23745;SDS011;12053;48.878;9.632;2023-07-20T04:28:43;3.33;;;2.35;;
23745;SDS011;12053;48.878;9.632;2023-07-20T04:31:13;3.45;;;2.08;;
23745;SDS011;12053;48.878;9.632;2023-07-20T04:33:41;3.45;;;2.40;;
23745;SDS011;12053;48.878;9.632;2023-07-20T04:36:09;3.95;;;2.35;;
23745;SDS011;12053;48.878;9.632;2023-07-20T04:38:36;3.17;;;2.20;;
23745;SDS011;12053;48.878;9.632;2023-07-20T04:41:03;3.38;;;2.25;;
23745;SDS011;12053;48.878;9.632;2023-07-20T04:43:30;5.40;;;2.25;;
23745;SDS011;12053;48.878;9.632;2023-07-20T04:45:57;7.13;;;2.25;;
23745;SDS011;12053;48.878;9.632;2023-07-20T04:48:25;4.13;;;2.05;;
23745;SDS011;12053;48.878;9.632;2023-07-20T04:50:52;3.20;;;2.45;;
23745;SDS011;12053;48.878;9.632;2023-07-20T04:53:19;4.88;;;2.20;;
23745;SDS011;12053;48.878;9.632;2023-07-20T04:55:49;4.22;;;2.10;;
23745;SDS011;12053;48.878;9.632;2023-07-20T04:58:18;3.50;;;2.30;;
23745;SDS011;12053;48.878;9.632;2023-07-20T05:00:46;3.45;;;2.33;;
23745;SDS011;12053;48.878;9.632;2023-07-20T05:03:13;3.13;;;2.08;;
23745;SDS011;12053;48.878;9.632;2023-07-20T05:05:40;4.93;;;2.30;;
23745;SDS011;12053;48.878;9.632;2023-07-20T05:08:07;2.60;;;2.03;;
23745;SDS011;12053;48.878;9.632;2023-07-20T05:10:35;4.93;;;1.90;;
23745;SDS011;12053;48.878;9.632;2023-07-20T05:13:03;4.68;;;2.40;;
23745;SDS011;12053;48.878;9.632;2023-07-20T05:15:32;4.30;;;2.28;;
23745;SDS011;12053;48.878;9.632;2023-07-20T05:18:00;8.05;;;2.10;;
23745;SDS011;12053;48.878;9.632;2023-07-20T05:20:27;3.92;;;2.00;;
23745;SDS011;12053;48.878;9.632;2023-07-20T05:22:54;4.50;;;2.03;;
23745;SDS011;12053;48.878;9.632;2023-07-20T05:25:22;6.82;;;2.33;;
23745;SDS011;12053;48.878;9.632;2023-07-20T05:27:49;4.85;;;2.25;;
23745;SDS011;12053;48.878;9.632;2023-07-20T05:30:16;5.47;;;2.40;;
23745;SDS011;12053;48.878;9.632;2023-07-20T05:32:44;5.15;;;2.38;;
23745;SDS011;12053;48.878;9.632;2023-07-20T05:35:17;5.43;;;1.77;;
23745;SDS011;12053;48.878;9.632;2023-07-20T05:37:45;6.15;;;2.03;;
23745;SDS011;12053;48.878;9.632;2023-07-20T05:40:12;3.17;;;2.00;;
23745;SDS011;12053;48.878;9.632;2023-07-20T05:42:39;3.40;;;1.98;;
23745;SDS011;12053;48.878;9.632;2023-07-20T05:45:07;7.63;;;2.30;;
23745;SDS011;12053;48.878;9.632;2023-07-20T05:47:34;4.43;;;1.65;;
23745;SDS011;12053;48.878;9.632;2023-07-20T05:50:01;3.28;;;2.00;;
23745;SDS011;12053;48.878;9.632;2023-07-20T05:52:29;3.33;;;2.20;;
23745;SDS011;12053;48.878;9.632;2023-07-20T05:54:57;4.72;;;1.80;;
23745;SDS011;12053;48.878;9.632;2023-07-20T05:57:24;4.07;;;2.08;;
23745;SDS011;12053;48.878;9.632;2023-07-20T05:59:51;3.83;;;2.00;;
23745;SDS011;12053;48.878;9.632;2023-07-20T06:02:18;4.35;;;2.30;;
23745;SDS011;12053;48.878;9.632;2023-07-20T06:04:46;6.03;;;2.40;;
23745;SDS011;12053;48.878;9.632;2023-07-20T06:07:13;3.22;;;2.03;;
23745;SDS011;12053;48.878;9.632;2023-07-20T06:09:40;4.28;;;2.30;;
23745;SDS011;12053;48.878;9.632;2023-07-20T06:12:07;4.85;;;2.10;;
23745;SDS011;12053;48.878;9.632;2023-07-20T06:14:35;2.42;;;1.80;;
23745;SDS011;12053;48.878;9.632;2023-07-20T06:17:02;5.65;;;2.13;;
23745;SDS011;12053;48.878;9.632;2023-07-20T06:19:29;3.92;;;1.75;;
23745;SDS011;12053;48.878;9.632;2023-07-20T06:21:56;5.45;;;2.15;;
23745;SDS011;12053;48.878;9.632;2023-07-20T06:24:23;3.22;;;1.92;;
23745;SDS011;12053;48.878;9.632;2023-07-20T06:26:51;2.42;;;1.65;;
23745;SDS011;12053;48.878;9.632;2023-07-20T06:29:18;3.83;;;1.70;;
23745;SDS011;12053;48.878;9.632;2023-07-20T06:31:45;4.75;;;1.70;;
23745;SDS011;12053;48.878;9.632;2023-07-20T06:34:12;4.28;;;1.95;;
23745;SDS011;12053;48.878;9.632;2023-07-20T06:36:40;3.78;;;1.77;;
23745;SDS011;12053;48.878;9.632;2023-07-20T06:39:07;2.45;;;1.92;;
23745;SDS011;12053;48.878;9.632;2023-07-20T06:41:37;8.23;;;2.30;;
23745;SDS011;12053;48.878;9.632;2023-07-20T06:44:07;6.97;;;2.00;;
23745;SDS011;12053;48.878;9.632;2023-07-20T06:46:34;3.33;;;1.80;;
23745;SDS011;12053;48.878;9.632;2023-07-20T06:49:02;2.85;;;1.80;;
23745;SDS011;12053;48.878;9.632;2023-07-20T06:51:32;6.65;;;1.77;;
23745;SDS011;12053;48.878;9.632;2023-07-20T06:53:59;4.07;;;1.95;;
23745;SDS011;12053;48.878;9.632;2023-07-20T06:56:26;4.30;;;1.65;;
23745;SDS011;12053;48.878;9.632;2023-07-20T06:58:56;3.70;;;1.70;;
23745;SDS011;12053;48.878;9.632;2023-07-20T07:01:23;3.70;;;1.98;;
23745;SDS011;12053;48.878;9.632;2023-07-20T07:03:51;4.90;;;1.75;;
23745;SDS011;12053;48.878;9.632;2023-07-20T07:06:21;4.80;;;2.15;;
23745;SDS011;12053;48.878;9.632;2023-07-20T07:08:50;6.68;;;2.03;;
23745;SDS011;12053;48.878;9.632;2023-07-20T07:11:17;3.60;;;1.77;;
23745;SDS011;12053;48.878;9.632;2023-07-20T07:13:45;4.00;;;2.00;;
23745;SDS011;12053;48.878;9.632;2023-07-20T07:16:13;3.30;;;1.98;;
23745;SDS011;12053;48.878;9.632;2023-07-20T07:21:13;4.93;;;1.83;;
23745;SDS011;12053;48.878;9.632;2023-07-20T07:23:40;3.72;;;1.67;;
23745;SDS011;12053;48.878;9.632;2023-07-20T07:26:08;5.57;;;2.08;;
23745;SDS011;12053;48.878;9.632;2023-07-20T07:28:36;3.58;;;1.90;;
23745;SDS011;12053;48.878;9.632;2023-07-20T07:31:06;3.90;;;1.90;;
23745;SDS011;12053;48.878;9.632;2023-07-20T07:33:34;6.00;;;2.30;;
23745;SDS011;12053;48.878;9.632;2023-07-20T07:36:01;2.45;;;1.80;;
23745;SDS011;12053;48.878;9.632;2023-07-20T07:38:28;5.18;;;2.22;;
23745;SDS011;12053;48.878;9.632;2023-07-20T07:41:16;2.88;;;1.83;;
23745;SDS011;12053;48.878;9.632;2023-07-20T07:43:43;4.68;;;2.30;;
23745;SDS011;12053;48.878;9.632;2023-07-20T07:46:10;4.60;;;1.75;;
23745;SDS011;12053;48.878;9.632;2023-07-20T07:48:37;4.25;;;2.00;;
23745;SDS011;12053;48.878;9.632;2023-07-20T07:51:04;6.35;;;1.92;;
23745;SDS011;12053;48.878;9.632;2023-07-20T07:53:32;2.70;;;2.00;;
23745;SDS011;12053;48.878;9.632;2023-07-20T07:55:59;3.28;;;2.10;;
23745;SDS011;12053;48.878;9.632;2023-07-20T07:58:26;6.50;;;2.25;;
23745;SDS011;12053;48.878;9.632;2023-07-20T08:00:53;4.97;;;2.00;;
23745;SDS011;12053;48.878;9.632;2023-07-20T08:03:21;7.57;;;2.63;;
23745;SDS011;12053;48.878;9.632;2023-07-20T08:05:50;5.60;;;2.25;;
23745;SDS011;12053;48.878;9.632;2023-07-20T08:08:20;7.43;;;2.20;;
23745;SDS011;12053;48.878;9.632;2023-07-20T08:10:50;10.00;;;2.47;;
23745;SDS011;12053;48.878;9.632;2023-07-20T08:13:18;8.10;;;2.80;;
23745;SDS011;12053;48.878;9.632;2023-07-20T08:15:48;5.72;;;2.38;;
23745;SDS011;12053;48.878;9.632;2023-07-20T08:18:15;5.15;;;2.53;;
23745;SDS011;12053;48.878;9.632;2023-07-20T08:20:46;10.48;;;3.05;;
23745;SDS011;12053;48.878;9.632;2023-07-20T08:23:13;7.40;;;2.83;;
23745;SDS011;12053;48.878;9.632;2023-07-20T08:25:40;18.33;;;3.70;;
23745;SDS011;12053;48.878;9.632;2023-07-20T08:28:10;4.57;;;2.20;;
23745;SDS011;12053;48.878;9.632;2023-07-20T08:30:47;6.32;;;2.53;;
23745;SDS011;12053;48.878;9.632;2023-07-20T08:33:15;14.93;;;2.95;;
23745;SDS011;12053;48.878;9.632;2023-07-20T08:35:44;3.97;;;2.63;;
23745;SDS011;12053;48.878;9.632;2023-07-20T08:38:11;6.95;;;2.75;;
23745;SDS011;12053;48.878;9.632;2023-07-20T08:40:42;4.82;;;2.25;;
23745;SDS011;12053;48.878;9.632;2023-07-20T08:43:10;10.10;;;2.70;;
23745;SDS011;12053;48.878;9.632;2023-07-20T08:45:38;8.80;;;2.75;;
23745;SDS011;12053;48.878;9.632;2023-07-20T08:48:06;5.25;;;2.30;;
23745;SDS011;12053;48.878;9.632;2023-07-20T08:50:34;7.35;;;2.38;;
23745;SDS011;12053;48.878;9.632;2023-07-20T08:53:02;5.65;;;2.45;;
23745;SDS011;12053;48.878;9.632;2023-07-20T08:55:29;4.20;;;2.42;;
23745;SDS011;12053;48.878;9.632;2023-07-20T08:57:58;16.42;;;3.47;;
23745;SDS011;12053;48.878;9.632;2023-07-20T09:00:26;5.65;;;2.00;;
23745;SDS011;12053;48.878;9.632;2023-07-20T09:02:55;3.33;;;1.90;;
23745;SDS011;12053;48.878;9.632;2023-07-20T09:05:23;5.85;;;2.58;;
23745;SDS011;12053;48.878;9.632;2023-07-20T09:07:52;5.40;;;2.15;;
23745;SDS011;12053;48.878;9.632;2023-07-20T09:10:23;5.45;;;2.28;;
23745;SDS011;12053;48.878;9.632;2023-07-20T09:12:50;4.05;;;2.28;;
23745;SDS011;12053;48.878;9.632;2023-07-20T09:15:18;4.13;;;2.30;;
23745;SDS011;12053;48.878;9.632;2023-07-20T09:17:46;2.50;;;2.00;;
23745;SDS011;12053;48.878;9.632;2023-07-20T09:20:15;4.40;;;2.45;;
23745;SDS011;12053;48.878;9.632;2023-07-20T09:22:46;3.13;;;2.17;;
23745;SDS011;12053;48.878;9.632;2023-07-20T09:25:16;4.25;;;2.33;;
23745;SDS011;12053;48.878;9.632;2023-07-20T09:27:45;3.72;;;1.95;;
23745;SDS011;12053;48.878;9.632;2023-07-20T09:30:13;2.72;;;1.92;;
23745;SDS011;12053;48.878;9.632;2023-07-20T09:32:47;4.15;;;1.95;;
23745;SDS011;12053;48.878;9.632;2023-07-20T09:35:18;6.85;;;1.75;;
23745;SDS011;12053;48.878;9.632;2023-07-20T09:37:57;5.53;;;2.30;;
23745;SDS011;12053;48.878;9.632;2023-07-20T09:40:28;4.40;;;2.38;;
23745;SDS011;12053;48.878;9.632;2023-07-20T09:42:58;2.35;;;2.10;;
23745;SDS011;12053;48.878;9.632;2023-07-20T09:45:30;2.72;;;1.90;;
23745;SDS011;12053;48.878;9.632;2023-07-20T09:48:04;7.22;;;1.88;;
23745;SDS011;12053;48.878;9.632;2023-07-20T09:50:41;5.18;;;2.10;;
23745;SDS011;12053;48.878;9.632;2023-07-20T09:53:13;3.22;;;1.60;;
23745;SDS011;12053;48.878;9.632;2023-07-20T09:55:41;4.33;;;2.00;;
23745;SDS011;12053;48.878;9.632;2023-07-20T09:58:09;7.90;;;2.63;;
23745;SDS011;12053;48.878;9.632;2023-07-20T10:00:37;3.78;;;1.70;;
23745;SDS011;12053;48.878;9.632;2023-07-20T10:03:07;4.20;;;1.88;;
23745;SDS011;12053;48.878;9.632;2023-07-20T10:05:39;3.70;;;1.75;;
23745;SDS011;12053;48.878;9.632;2023-07-20T10:08:07;2.67;;;1.80;;
23745;SDS011;12053;48.878;9.632;2023-07-20T10:13:07;4.95;;;1.60;;
23745;SDS011;12053;48.878;9.632;2023-07-20T10:15:37;2.42;;;1.90;;
23745;SDS011;12053;48.878;9.632;2023-07-20T10:18:07;2.72;;;1.60;;
23745;SDS011;12053;48.878;9.632;2023-07-20T10:20:36;3.38;;;1.77;;
23745;SDS011;12053;48.878;9.632;2023-07-20T10:23:26;3.90;;;1.90;;
23745;SDS011;12053;48.878;9.632;2023-07-20T10:25:57;3.00;;;1.60;;
23745;SDS011;12053;48.878;9.632;2023-07-20T10:28:26;3.78;;;2.10;;
23745;SDS011;12053;48.878;9.632;2023-07-20T10:30:54;3.78;;;1.58;;
23745;SDS011;12053;48.878;9.632;2023-07-20T10:33:21;5.20;;;1.55;;
23745;SDS011;12053;48.878;9.632;2023-07-20T10:35:56;1.88;;;1.42;;
23745;SDS011;12053;48.878;9.632;2023-07-20T10:38:40;3.95;;;2.13;;
23745;SDS011;12053;48.878;9.632;2023-07-20T10:43:46;2.45;;;1.75;;
23745;SDS011;12053;48.878;9.632;2023-07-20T10:46:13;4.93;;;1.70;;
23745;SDS011;12053;48.878;9.632;2023-07-20T10:48:59;2.97;;;1.67;;
23745;SDS011;12053;48.878;9.632;2023-07-20T10:51:28;2.90;;;1.80;;
23745;SDS011;12053;48.878;9.632;2023-07-20T10:53:56;2.58;;;1.60;;
23745;SDS011;12053;48.878;9.632;2023-07-20T10:56:28;2.28;;;1.58;;
23745;SDS011;12053;48.878;9.632;2023-07-20T10:58:58;1.92;;;1.25;;
23745;SDS011;12053;48.878;9.632;2023-07-20T11:01:29;2.75;;;1.60;;
23745;SDS011;12053;48.878;9.632;2023-07-20T11:03:58;1.95;;;1.70;;
23745;SDS011;12053;48.878;9.632;2023-07-20T11:06:30;2.92;;;1.40;;
23745;SDS011;12053;48.878;9.632;2023-07-20T11:09:05;2.05;;;1.38;;
23745;SDS011;12053;48.878;9.632;2023-07-20T11:11:35;5.22;;;1.50;;
23745;SDS011;12053;48.878;9.632;2023-07-20T11:14:06;3.53;;;1.20;;
23745;SDS011;12053;48.878;9.632;2023-07-20T11:19:05;1.58;;;1.25;;
23745;SDS011;12053;48.878;9.632;2023-07-20T11:21:36;1.73;;;1.50;;
23745;SDS011;12053;48.878;9.632;2023-07-20T11:24:21;3.28;;;1.60;;
23745;SDS011;12053;48.878;9.632;2023-07-20T11:26:49;3.15;;;1.83;;
23745;SDS011;12053;48.878;9.632;2023-07-20T11:29:17;3.40;;;1.60;;
23745;SDS011;12053;48.878;9.632;2023-07-20T11:31:57;2.78;;;1.38;;
23745;SDS011;12053;48.878;9.632;2023-07-20T11:34:27;2.25;;;1.45;;
23745;SDS011;12053;48.878;9.632;2023-07-20T11:36:54;2.50;;;1.30;;
23745;SDS011;12053;48.878;9.632;2023-07-20T11:39:24;1.30;;;1.20;;
23745;SDS011;12053;48.878;9.632;2023-07-20T11:41:53;1.85;;;1.23;;
23745;SDS011;12053;48.878;9.632;2023-07-20T11:44:21;3.13;;;1.20;;
23745;SDS011;12053;48.878;9.632;2023-07-20T11:47:08;4.72;;;1.33;;
23745;SDS011;12053;48.878;9.632;2023-07-20T11:49:37;3.15;;;1.48;;
23745;SDS011;12053;48.878;9.632;2023-07-20T11:52:07;2.20;;;1.63;;
23745;SDS011;12053;48.878;9.632;2023-07-20T11:54:35;4.32;;;1.30;;
23745;SDS011;12053;48.878;9.632;2023-07-20T11:57:03;3.05;;;1.10;;
23745;SDS011;12053;48.878;9.632;2023-07-20T11:59:34;2.00;;;1.30;;
23745;SDS011;12053;48.878;9.632;2023-07-20T12:02:01;1.67;;;1.30;;
23745;SDS011;12053;48.878;9.632;2023-07-20T12:04:32;5.00;;;1.38;;
23745;SDS011;12053;48.878;9.632;2023-07-20T12:07:00;1.98;;;1.42;;
23745;SDS011;12053;48.878;9.632;2023-07-20T12:09:27;2.90;;;1.23;;
23745;SDS011;12053;48.878;9.632;2023-07-20T12:12:10;3.25;;;1.27;;
23745;SDS011;12053;48.878;9.632;2023-07-20T12:14:40;2.10;;;1.38;;
23745;SDS011;12053;48.878;9.632;2023-07-20T12:17:10;7.10;;;1.40;;
23745;SDS011;12053;48.878;9.632;2023-07-20T12:19:38;2.38;;;1.27;;
23745;SDS011;12053;48.878;9.632;2023-07-20T12:22:06;2.08;;;1.30;;
23745;SDS011;12053;48.878;9.632;2023-07-20T12:24:33;3.22;;;1.50;;
23745;SDS011;12053;48.878;9.632;2023-07-20T12:27:01;3.00;;;1.38;;
23745;SDS011;12053;48.878;9.632;2023-07-20T12:29:28;3.97;;;1.20;;
23745;SDS011;12053;48.878;9.632;2023-07-20T12:31:57;2.63;;;1.60;;
23745;SDS011;12053;48.878;9.632;2023-07-20T12:34:25;1.55;;;1.17;;
23745;SDS011;12053;48.878;9.632;2023-07-20T12:36:52;3.55;;;1.30;;
23745;SDS011;12053;48.878;9.632;2023-07-20T12:39:19;1.63;;;1.30;;
23745;SDS011;12053;48.878;9.632;2023-07-20T12:41:46;3.20;;;1.30;;
23745;SDS011;12053;48.878;9.632;2023-07-20T12:44:14;1.80;;;1.08;;
23745;SDS011;12053;48.878;9.632;2023-07-20T12:46:41;2.90;;;1.40;;
23745;SDS011;12053;48.878;9.632;2023-07-20T12:49:08;6.10;;;1.50;;
23745;SDS011;12053;48.878;9.632;2023-07-20T12:51:35;4.50;;;1.40;;
23745;SDS011;12053;48.878;9.632;2023-07-20T12:54:02;6.78;;;1.30;;
23745;SDS011;12053;48.878;9.632;2023-07-20T12:56:30;1.75;;;1.40;;
23745;SDS011;12053;48.878;9.632;2023-07-20T12:59:00;6.38;;;1.70;;
23745;SDS011;12053;48.878;9.632;2023-07-20T13:01:29;3.35;;;1.25;;
23745;SDS011;12053;48.878;9.632;2023-07-20T13:03:56;1.98;;;1.35;;
23745;SDS011;12053;48.878;9.632;2023-07-20T13:06:26;1.92;;;1.38;;
23745;SDS011;12053;48.878;9.632;2023-07-20T13:08:54;3.03;;;1.30;;
23745;SDS011;12053;48.878;9.632;2023-07-20T13:11:23;3.78;;;1.40;;
23745;SDS011;12053;48.878;9.632;2023-07-20T13:13:50;1.92;;;1.30;;
23745;SDS011;12053;48.878;9.632;2023-07-20T13:16:18;5.15;;;1.30;;
23745;SDS011;12053;48.878;9.632;2023-07-20T13:18:45;3.00;;;1.30;;
23745;SDS011;12053;48.878;9.632;2023-07-20T13:21:12;2.63;;;1.52;;
23745;SDS011;12053;48.878;9.632;2023-07-20T13:23:39;5.22;;;1.33;;
23745;SDS011;12053;48.878;9.632;2023-07-20T13:26:07;2.75;;;1.50;;
23745;SDS011;12053;48.878;9.632;2023-07-20T13:28:34;3.28;;;1.40;;
23745;SDS011;12053;48.878;9.632;2023-07-20T13:31:03;2.72;;;1.48;;
23745;SDS011;12053;48.878;9.632;2023-07-20T13:33:30;3.90;;;1.50;;
23745;SDS011;12053;48.878;9.632;2023-07-20T13:36:02;5.85;;;1.60;;
23745;SDS011;12053;48.878;9.632;2023-07-20T13:38:35;2.10;;;1.50;;
23745;SDS011;12053;48.878;9.632;2023-07-20T13:41:02;2.67;;;1.40;;
23745;SDS011;12053;48.878;9.632;2023-07-20T13:43:29;2.30;;;1.23;;
23745;SDS011;12053;48.878;9.632;2023-07-20T13:45:56;2.70;;;1.60;;
23745;SDS011;12053;48.878;9.632;2023-07-20T13:48:24;1.38;;;1.27;;
23745;SDS011;12053;48.878;9.632;2023-07-20T13:50:53;1.90;;;1.40;;
23745;SDS011;12053;48.878;9.632;2023-07-20T13:53:24;2.05;;;1.25;;
23745;SDS011;12053;48.878;9.632;2023-07-20T13:55:54;1.98;;;1.60;;
23745;SDS011;12053;48.878;9.632;2023-07-20T13:58:26;4.63;;;1.50;;
23745;SDS011;12053;48.878;9.632;2023-07-20T14:00:53;2.75;;;1.35;;
23745;SDS011;12053;48.878;9.632;2023-07-20T14:03:21;2.20;;;1.45;;
23745;SDS011;12053;48.878;9.632;2023-07-20T14:05:48;5.03;;;1.60;;
23745;SDS011;12053;48.878;9.632;2023-07-20T14:08:19;4.53;;;1.40;;
23745;SDS011;12053;48.878;9.632;2023-07-20T14:10:46;5.32;;;1.73;;
23745;SDS011;12053;48.878;9.632;2023-07-20T14:13:16;3.25;;;1.45;;
23745;SDS011;12053;48.878;9.632;2023-07-20T14:15:43;2.13;;;1.40;;
23745;SDS011;12053;48.878;9.632;2023-07-20T14:18:11;2.45;;;1.50;;
23745;SDS011;12053;48.878;9.632;2023-07-20T14:20:38;2.42;;;1.50;;
23745;SDS011;12053;48.878;9.632;2023-07-20T14:23:06;6.25;;;1.50;;
23745;SDS011;12053;48.878;9.632;2023-07-20T14:25:33;1.55;;;1.30;;
23745;SDS011;12053;48.878;9.632;2023-07-20T14:28:03;2.38;;;1.30;;
23745;SDS011;12053;48.878;9.632;2023-07-20T14:30:30;1.70;;;1.40;;
23745;SDS011;12053;48.878;9.632;2023-07-20T14:32:58;3.92;;;1.35;;
23745;SDS011;12053;48.878;9.632;2023-07-20T14:35:25;1.90;;;1.33;;
23745;SDS011;12053;48.878;9.632;2023-07-20T14:37:53;3.75;;;1.30;;
23745;SDS011;12053;48.878;9.632;2023-07-20T14:40:20;3.83;;;1.48;;
23745;SDS011;12053;48.878;9.632;2023-07-20T14:42:47;3.13;;;1.60;;
23745;SDS011;12053;48.878;9.632;2023-07-20T14:45:14;2.53;;;1.52;;
23745;SDS011;12053;48.878;9.632;2023-07-20T14:47:42;2.78;;;1.35;;
23745;SDS011;12053;48.878;9.632;2023-07-20T14:50:10;2.60;;;1.15;;
23745;SDS011;12053;48.878;9.632;2023-07-20T14:52:37;2.35;;;1.42;;
23745;SDS011;12053;48.878;9.632;2023-07-20T14:55:14;5.65;;;1.58;;
23745;SDS011;12053;48.878;9.632;2023-07-20T14:57:42;3.38;;;1.65;;
23745;SDS011;12053;48.878;9.632;2023-07-20T15:00:09;4.70;;;1.42;;
23745;SDS011;12053;48.878;9.632;2023-07-20T15:02:37;3.67;;;1.42;;
23745;SDS011;12053;48.878;9.632;2023-07-20T15:05:06;2.42;;;1.15;;
23745;SDS011;12053;48.878;9.632;2023-07-20T15:07:34;3.50;;;1.40;;
23745;SDS011;12053;48.878;9.632;2023-07-20T15:10:05;2.00;;;1.27;;